createdAt,value
2019-05-22T00:00:13.914Z,6.30
2019-05-22T00:05:22.222Z,6.00
2019-05-22T00:07:53.696Z,6.50
2019-05-22T00:10:28.104Z,5.70
2019-05-22T00:12:59.499Z,5.80
2019-05-22T00:15:30.161Z,5.55
2019-05-22T00:20:37.275Z,5.20
2019-05-22T00:23:10.545Z,5.80
2019-05-22T00:25:40.921Z,5.60
2019-05-22T00:28:12.169Z,6.60
2019-05-22T00:30:44.244Z,6.20
2019-05-22T00:33:15.781Z,5.30
2019-05-22T00:35:46.879Z,6.00
2019-05-22T00:38:18.217Z,5.55
2019-05-22T00:40:54.983Z,5.20
2019-05-22T00:43:36.938Z,5.75
2019-05-22T00:46:09.766Z,5.30
2019-05-22T00:48:44.356Z,5.70
2019-05-22T00:51:34.765Z,5.50
2019-05-22T00:54:36.238Z,6.50
2019-05-22T00:57:26.456Z,5.80
2019-05-22T01:00:19.033Z,6.05
2019-05-22T01:02:54.088Z,5.35
2019-05-22T02:33:33.266Z,5.43
2019-05-22T02:36:04.798Z,5.05
2019-05-22T02:38:37.272Z,5.50
2019-05-22T02:41:09.337Z,6.10
2019-05-22T02:43:39.373Z,5.90
2019-05-22T02:46:11.979Z,6.40
2019-05-22T02:48:44.178Z,6.65
2019-05-22T02:51:15.331Z,6.00
2019-05-22T02:53:46.472Z,5.50
2019-05-22T02:56:17.435Z,5.20
2019-05-22T03:01:02.114Z,5.00
2019-05-22T03:06:03.593Z,4.90
2019-05-22T03:12:03.751Z,5.40
2019-05-22T03:17:27.760Z,5.20
2019-05-22T03:19:59.679Z,5.63
2019-05-22T03:22:39.671Z,5.20
2019-05-22T03:25:11.450Z,5.00
2019-05-22T03:27:44.527Z,6.10
2019-05-22T03:30:27.833Z,6.00
2019-05-22T03:33:00.841Z,5.80
2019-05-22T03:35:34.761Z,6.20
2019-05-22T03:38:05.922Z,5.50
2019-05-22T03:40:37.557Z,4.35
2019-05-22T03:43:17.340Z,4.85
2019-05-22T03:45:48.735Z,4.85
2019-05-22T03:48:21.654Z,5.33
2019-05-22T03:50:56.002Z,5.05
2019-05-22T03:53:27.566Z,6.10
2019-05-22T03:55:59.076Z,5.75
2019-05-22T03:58:30.554Z,5.60
2019-05-22T04:01:03.546Z,6.20
2019-05-22T04:03:35.135Z,4.90
2019-05-22T04:06:06.085Z,4.90
2019-05-22T04:08:36.976Z,5.13
2019-05-22T04:11:08.284Z,4.05
2019-05-22T04:13:40.099Z,5.15
2019-05-22T04:16:13.399Z,4.90
2019-05-22T04:18:44.523Z,4.90
2019-05-22T04:21:16.886Z,5.30
2019-05-22T04:23:47.003Z,5.93
2019-05-22T04:26:18.375Z,5.80
2019-05-22T04:28:52.486Z,5.35
2019-05-22T04:31:46.001Z,4.83
2019-05-22T04:34:16.029Z,4.50
2019-05-22T04:36:47.868Z,4.75
2019-05-22T04:39:23.743Z,5.20
2019-05-22T04:41:56.054Z,4.60
2019-05-22T04:44:26.414Z,4.70
2019-05-22T04:46:56.962Z,5.40
2019-05-22T04:49:26.383Z,6.40
2019-05-22T04:51:55.766Z,6.05
2019-05-22T04:54:25.901Z,5.90
2019-05-22T04:58:33.924Z,4.80
2019-05-22T05:01:03.783Z,5.80
2019-05-22T05:03:35.367Z,5.50
2019-05-22T05:09:34.946Z,5.05
2019-05-22T05:12:05.319Z,4.20
2019-05-22T05:14:34.002Z,4.50
2019-05-22T05:17:03.676Z,4.60
2019-05-22T05:19:32.301Z,5.25
2019-05-22T05:23:13.273Z,4.60
2019-05-22T05:25:43.625Z,4.95
2019-05-22T05:28:13.892Z,4.47
2019-05-22T05:30:43.906Z,4.60
2019-05-22T05:33:13.722Z,4.35
2019-05-22T05:35:42.367Z,4.83
2019-05-22T05:38:10.204Z,4.30
2019-05-22T05:40:42.397Z,5.70
2019-05-22T05:43:12.126Z,4.97
2019-05-22T05:45:40.714Z,4.57
2019-05-22T05:48:10.560Z,5.10
2019-05-22T05:50:40.490Z,5.20
2019-05-22T05:53:15.059Z,5.37
2019-05-22T05:56:20.942Z,5.30
2019-05-22T05:58:49.167Z,5.77
2019-05-22T06:01:23.801Z,5.35
2019-05-22T06:03:55.555Z,5.40
2019-05-22T06:07:19.041Z,4.80
2019-05-22T06:10:33.901Z,5.10
2019-05-22T06:13:04.013Z,4.70
2019-05-22T06:19:00.667Z,5.05
2019-05-22T06:21:30.591Z,5.25
2019-05-22T06:24:25.064Z,4.00
2019-05-22T06:29:56.987Z,5.50
2019-05-22T06:33:17.079Z,6.10
2019-05-22T06:35:48.256Z,4.70
2019-05-22T06:38:53.789Z,4.60
2019-05-22T06:41:48.662Z,5.55
2019-05-22T06:44:52.788Z,5.35
2019-05-22T06:47:23.363Z,5.10
2019-05-22T06:49:55.312Z,5.10
2019-05-22T06:52:24.059Z,5.55
2019-05-22T06:54:54.470Z,5.25
2019-05-22T06:57:28.967Z,5.55
2019-05-22T07:00:14.639Z,7.40
2019-05-22T07:02:36.599Z,8.50
2019-05-22T07:05:09.663Z,32.55
2019-05-22T07:09:30.499Z,13.40
2019-05-22T07:17:56.592Z,14.80
2019-05-22T07:20:30.669Z,12.00
2019-05-22T07:23:51.487Z,9.70
2019-05-22T07:26:21.614Z,8.67
2019-05-22T07:28:51.901Z,8.45
2019-05-22T07:31:22.614Z,8.70
2019-05-22T07:33:51.673Z,8.60
2019-05-22T07:36:21.564Z,8.65
2019-05-22T07:38:51.703Z,8.00
2019-05-22T07:42:29.971Z,8.65
2019-05-22T07:45:28.885Z,7.90
2019-05-22T07:47:59.193Z,9.87
2019-05-22T07:50:28.488Z,9.15
2019-05-22T07:52:57.665Z,9.35
2019-05-22T07:55:27.432Z,9.08
2019-05-22T07:58:11.686Z,9.30
2019-05-22T08:00:44.757Z,9.90
2019-05-22T08:03:14.499Z,9.58
2019-05-22T08:05:51.462Z,9.87
2019-05-22T08:08:21.315Z,9.17
2019-05-22T08:10:52.238Z,8.80
2019-05-22T08:13:22.112Z,9.30
2019-05-22T08:15:53.486Z,8.40
2019-05-22T08:18:30.711Z,8.30
2019-05-22T08:21:00.882Z,8.60
2019-05-22T08:23:32.017Z,9.25
2019-05-22T08:26:02.893Z,8.60
2019-05-22T08:28:34.136Z,8.60
2019-05-22T08:31:05.478Z,8.40
2019-05-22T08:33:36.854Z,9.10
2019-05-22T08:36:09.032Z,8.90
2019-05-22T08:38:39.901Z,9.30
2019-05-22T08:41:11.467Z,8.40
2019-05-22T08:44:11.218Z,8.90
2019-05-22T08:46:15.055Z,8.85
2019-05-22T08:48:48.758Z,8.90
2019-05-22T08:51:39.386Z,8.75
2019-05-22T08:54:09.657Z,9.05
2019-05-22T08:56:41.725Z,9.10
2019-05-22T08:59:19.427Z,8.55
2019-05-22T09:01:42.589Z,8.85
2019-05-22T09:04:12.620Z,8.70
2019-05-22T09:09:21.862Z,9.00
2019-05-22T09:11:51.093Z,8.50
2019-05-22T09:14:20.648Z,9.10
2019-05-22T09:17:37.347Z,8.65
2019-05-22T09:20:07.966Z,7.90
2019-05-22T09:22:41.098Z,8.80
2019-05-22T09:25:12.147Z,8.13
2019-05-22T09:27:41.866Z,8.60
2019-05-22T09:30:11.346Z,8.30
2019-05-22T09:32:40.885Z,8.70
2019-05-22T09:35:10.436Z,8.75
2019-05-22T09:37:39.338Z,8.90
2019-05-22T09:40:08.892Z,8.60
2019-05-22T09:42:39.980Z,8.08
2019-05-22T09:47:35.515Z,7.80
2019-05-22T09:50:08.586Z,7.70
2019-05-22T09:52:55.912Z,7.75
2019-05-22T09:55:14.519Z,8.93
2019-05-22T09:57:47.883Z,8.05
2019-05-22T10:00:19.494Z,7.80
2019-05-22T10:02:52.781Z,7.73
2019-05-22T10:05:21.228Z,7.55
2019-05-22T10:08:00.630Z,8.20
2019-05-22T10:10:26.253Z,7.65
2019-05-22T10:12:57.920Z,7.40
2019-05-22T10:15:28.653Z,7.50
2019-05-22T10:17:59.609Z,6.60
2019-05-22T10:20:28.797Z,7.60
2019-05-22T10:23:14.647Z,7.60
2019-05-22T10:28:06.150Z,7.60
2019-05-22T10:30:38.818Z,7.30
2019-05-22T10:33:08.750Z,7.00
2019-05-22T10:35:40.279Z,7.20
2019-05-22T10:38:13.735Z,7.15
2019-05-22T10:40:45.058Z,7.20
2019-05-22T10:43:16.939Z,7.20
2019-05-22T10:45:48.992Z,6.85
2019-05-22T10:48:20.534Z,6.60
2019-05-22T10:50:52.299Z,7.00
2019-05-22T10:53:32.833Z,6.80
2019-05-22T10:55:52.499Z,6.63
2019-05-22T10:58:21.082Z,6.83
2019-05-22T11:00:50.461Z,7.15
2019-05-22T11:03:20.890Z,6.90
2019-05-22T11:06:06.278Z,7.05
2019-05-22T11:08:28.969Z,6.80
2019-05-22T11:10:58.798Z,6.95
2019-05-22T11:13:29.739Z,6.65
2019-05-22T11:16:01.366Z,6.05
2019-05-22T11:18:35.603Z,6.70
2019-05-22T11:21:06.535Z,6.85
2019-05-22T11:23:51.338Z,6.20
2019-05-22T11:26:10.880Z,6.40
2019-05-22T11:28:42.814Z,6.30
2019-05-22T11:31:13.336Z,6.33
2019-05-22T11:33:42.779Z,5.80
2019-05-22T11:36:12.352Z,6.53
2019-05-22T11:38:41.326Z,5.90
2019-05-22T11:41:09.794Z,6.10
2019-05-22T11:43:39.259Z,6.10
2019-05-22T11:46:08.589Z,5.90
2019-05-22T11:48:39.914Z,5.85
2019-05-22T11:51:09.731Z,6.20
2019-05-22T11:53:39.945Z,6.40
2019-05-22T11:56:11.230Z,6.23
2019-05-22T11:58:40.779Z,5.80
2019-05-22T12:01:09.864Z,6.10
2019-05-22T12:03:38.871Z,6.40
2019-05-22T12:06:08.078Z,7.30
2019-05-22T12:08:38.323Z,7.20
2019-05-22T12:11:08.788Z,6.93
2019-05-22T12:14:09.127Z,6.90
2019-05-22T12:16:40.019Z,6.30
2019-05-22T12:19:13.113Z,6.50
2019-05-22T12:21:44.542Z,6.20
2019-05-22T12:24:26.096Z,6.40
2019-05-22T12:26:44.836Z,6.00
2019-05-22T12:29:17.367Z,6.45
2019-05-22T12:31:47.430Z,6.30
2019-05-22T12:34:18.049Z,6.10
2019-05-22T12:36:51.211Z,5.62
2019-05-22T12:39:21.988Z,5.60
2019-05-22T12:41:51.247Z,5.00
2019-05-22T12:46:50.704Z,5.60
2019-05-22T12:49:38.935Z,5.05
2019-05-22T12:52:09.655Z,5.25
2019-05-22T12:54:46.852Z,5.10
2019-05-22T12:57:10.283Z,5.00
2019-05-22T12:59:40.146Z,5.60
2019-05-22T13:02:09.492Z,5.22
2019-05-22T13:04:40.986Z,5.30
2019-05-22T13:08:05.315Z,5.40
2019-05-22T13:10:35.083Z,5.35
2019-05-22T13:13:04.788Z,4.90
2019-05-22T13:15:37.473Z,5.50
2019-05-22T13:18:11.285Z,4.90
2019-05-22T13:20:46.400Z,5.20
2019-05-22T13:23:17.955Z,5.10
2019-05-22T13:25:50.069Z,4.83
2019-05-22T13:28:19.401Z,5.20
2019-05-22T13:33:25.663Z,6.00
2019-05-22T13:35:57.847Z,5.50
2019-05-22T13:38:29.081Z,5.05
2019-05-22T13:43:30.989Z,5.35
2019-05-22T13:46:00.763Z,5.10
2019-05-22T13:48:32.519Z,5.30
2019-05-22T13:51:04.649Z,5.97
2019-05-22T13:53:33.900Z,5.70
2019-05-22T13:56:04.263Z,5.05
2019-05-22T13:58:35.609Z,5.40
2019-05-22T14:01:07.412Z,5.80
2019-05-22T14:03:38.525Z,6.10
2019-05-22T14:08:41.848Z,5.90
2019-05-22T14:11:14.224Z,5.40
2019-05-22T14:13:46.754Z,5.60
2019-05-22T14:16:19.409Z,6.60
2019-05-22T14:18:50.431Z,6.90
2019-05-22T14:21:22.808Z,6.65
2019-05-22T14:23:54.162Z,6.35
2019-05-22T14:26:24.959Z,5.73
2019-05-22T14:28:55.443Z,5.55
2019-05-22T14:31:26.545Z,6.20
2019-05-22T14:33:56.313Z,6.70
2019-05-22T14:36:28.404Z,6.20
2019-05-22T14:39:00.292Z,6.00
2019-05-22T14:41:31.828Z,6.30
2019-05-22T14:44:02.325Z,5.70
2019-05-22T14:49:03.193Z,6.50
2019-05-22T14:51:33.578Z,5.90
2019-05-22T14:56:35.274Z,5.90
2019-05-22T14:59:07.389Z,5.90
2019-05-22T15:01:38.644Z,5.65
2019-05-22T15:04:09.042Z,6.40
2019-05-22T15:06:40.986Z,5.70
2019-05-22T15:11:42.549Z,5.80
2019-05-22T15:14:13.926Z,5.35
2019-05-22T15:16:45.654Z,5.17
2019-05-22T15:19:17.554Z,5.50
2019-05-22T15:21:48.941Z,4.60
2019-05-22T15:24:19.288Z,4.70
2019-05-22T15:26:50.211Z,5.70
2019-05-22T15:29:20.992Z,4.80
2019-05-22T15:34:39.389Z,5.30
2019-05-22T15:37:11.269Z,4.90
2019-05-22T15:39:43.151Z,4.30
2019-05-22T15:42:44.712Z,4.80
2019-05-22T15:45:19.049Z,4.90
2019-05-22T15:47:55.249Z,5.80
2019-05-22T15:50:27.294Z,5.30
2019-05-22T15:53:05.580Z,5.10
2019-05-22T15:55:38.288Z,5.55
2019-05-22T15:58:09.817Z,6.75
2019-05-22T16:00:43.076Z,5.43
2019-05-22T16:03:17.184Z,5.60
2019-05-22T16:08:19.484Z,5.20
2019-05-22T16:10:51.313Z,4.80
2019-05-22T16:13:24.181Z,5.90
2019-05-22T16:15:56.566Z,5.90
2019-05-22T16:18:29.233Z,5.40
2019-05-22T16:23:35.006Z,5.25
2019-05-22T16:26:05.989Z,6.00
2019-05-22T16:28:38.581Z,5.40
2019-05-22T16:31:09.947Z,4.60
2019-05-22T16:33:42.679Z,5.73
2019-05-22T16:36:14.961Z,6.85
2019-05-22T16:38:47.463Z,7.05
2019-05-22T16:41:19.388Z,6.90
2019-05-22T16:43:51.619Z,5.75
2019-05-22T16:46:23.047Z,5.90
2019-05-22T16:48:55.334Z,5.60
2019-05-22T16:51:30.743Z,6.30
2019-05-22T16:56:37.929Z,5.53
2019-05-22T16:59:10.072Z,5.30
2019-05-22T17:01:57.498Z,5.60
2019-05-22T17:04:14.078Z,5.40
2019-05-22T17:06:46.498Z,6.20
2019-05-22T17:09:19.421Z,5.83
2019-05-22T17:11:51.480Z,5.90
2019-05-22T17:14:23.700Z,5.20
2019-05-22T17:16:56.543Z,5.50
2019-05-22T17:19:28.636Z,5.60
2019-05-22T17:22:00.728Z,5.30
2019-05-22T17:24:34.364Z,5.50
2019-05-22T17:27:06.925Z,5.65
2019-05-22T17:29:38.953Z,5.50
2019-05-22T17:32:11.811Z,4.90
2019-05-22T17:34:43.452Z,4.85
2019-05-22T17:37:17.793Z,5.90
2019-05-22T17:41:11.447Z,5.80
2019-05-22T17:48:42.838Z,5.90
2019-05-22T17:51:14.683Z,6.60
2019-05-22T17:53:45.757Z,5.50
2019-05-22T17:56:17.060Z,5.75
2019-05-22T17:58:47.823Z,5.55
2019-05-22T18:01:41.481Z,5.25
2019-05-22T18:04:13.719Z,5.25
2019-05-22T18:06:44.578Z,4.80
2019-05-22T18:11:47.334Z,5.30
2019-05-22T18:14:17.281Z,5.50
2019-05-22T18:16:48.571Z,4.80
2019-05-22T18:19:19.955Z,4.90
2019-05-22T18:21:51.689Z,5.50
2019-05-22T18:24:21.035Z,5.75
2019-05-22T18:26:53.099Z,5.50
2019-05-22T18:29:24.391Z,5.20
2019-05-22T18:31:55.083Z,4.55
2019-05-22T18:34:25.719Z,5.35
2019-05-22T18:36:56.756Z,5.05
2019-05-22T18:39:29.330Z,5.00
2019-05-22T18:42:00.041Z,5.30
2019-05-22T18:46:13.305Z,5.55
2019-05-22T18:48:44.188Z,5.10
2019-05-22T18:53:44.110Z,4.60
2019-05-22T18:56:14.425Z,4.50
2019-05-22T18:58:51.109Z,4.30
2019-05-22T19:03:49.960Z,4.97
2019-05-22T19:08:50.419Z,5.20
2019-05-22T19:11:19.680Z,4.95
2019-05-22T19:16:48.899Z,4.25
2019-05-22T19:19:20.230Z,4.70
2019-05-22T19:21:51.190Z,4.50
2019-05-22T19:24:21.576Z,4.60
2019-05-22T19:26:52.304Z,5.50
2019-05-22T19:29:22.589Z,4.80
2019-05-22T19:31:52.160Z,4.90
2019-05-22T19:34:21.697Z,5.00
2019-05-22T19:39:22.169Z,5.50
2019-05-22T19:42:01.872Z,4.60
2019-05-22T19:44:25.907Z,4.60
2019-05-22T19:46:55.938Z,4.50
2019-05-22T19:49:28.827Z,5.00
2019-05-22T19:51:59.947Z,5.30
2019-05-22T19:54:31.313Z,5.25
2019-05-22T19:57:04.364Z,5.40
2019-05-22T19:59:35.198Z,5.90
2019-05-22T20:02:05.148Z,5.10
2019-05-22T20:04:32.996Z,5.10
2019-05-22T20:07:01.938Z,5.23
2019-05-22T20:09:30.809Z,4.70
2019-05-22T20:11:58.903Z,5.13
2019-05-22T20:14:30.471Z,4.90
2019-05-22T20:19:28.956Z,5.30
2019-05-22T20:22:00.319Z,4.50
2019-05-22T20:24:31.248Z,5.20
2019-05-22T20:27:02.027Z,4.70
2019-05-22T20:31:38.387Z,4.85
2019-05-22T20:34:09.063Z,4.95
2019-05-22T20:36:40.852Z,5.95
2019-05-22T20:41:44.205Z,4.60
2019-05-22T20:44:16.789Z,5.50
2019-05-22T20:46:48.895Z,5.25
2019-05-22T20:49:20.597Z,5.00
2019-05-22T20:54:22.377Z,4.70
2019-05-22T20:56:54.036Z,4.40
2019-05-22T20:59:25.806Z,4.60
2019-05-22T21:01:56.503Z,4.90
2019-05-22T21:04:30.257Z,4.40
2019-05-22T21:07:05.462Z,4.60
2019-05-22T21:09:36.778Z,4.50
2019-05-22T21:12:08.084Z,4.65
2019-05-22T21:14:39.295Z,4.75
2019-05-22T21:17:11.235Z,4.65
2019-05-22T21:19:40.760Z,5.20
2019-05-22T21:22:14.305Z,5.25
2019-05-22T21:27:17.109Z,5.30
2019-05-22T21:29:47.053Z,5.30
2019-05-22T21:32:16.548Z,4.80
2019-05-22T21:34:45.760Z,5.33
2019-05-22T21:37:15.943Z,5.10
2019-05-22T21:39:44.517Z,5.35
2019-05-22T21:42:15.695Z,5.60
2019-05-22T21:44:45.799Z,6.15
2019-05-22T21:47:15.813Z,5.70
2019-05-22T21:49:44.029Z,6.10
2019-05-22T21:52:12.865Z,6.17
2019-05-22T21:54:41.722Z,6.60
2019-05-22T21:57:11.712Z,5.70
2019-05-22T21:59:42.069Z,6.55
2019-05-22T22:02:17.386Z,6.10
2019-05-22T22:04:47.370Z,6.17
2019-05-22T22:08:25.000Z,6.35
2019-05-22T22:10:54.972Z,6.80
2019-05-22T22:13:24.643Z,6.40
2019-05-22T22:15:54.244Z,7.30
2019-05-22T22:18:25.483Z,5.90
2019-05-22T22:20:55.706Z,6.27
2019-05-22T22:23:24.597Z,6.63
2019-05-22T22:25:54.602Z,6.35
2019-05-22T22:28:24.877Z,6.60
2019-05-22T22:30:56.524Z,7.40
2019-05-22T22:33:27.526Z,7.17
2019-05-22T22:35:55.368Z,6.80
2019-05-22T22:38:25.629Z,6.30
2019-05-22T22:40:54.418Z,6.23
2019-05-22T22:43:23.141Z,6.50
2019-05-22T22:46:01.143Z,6.27
2019-05-22T22:48:32.231Z,5.95
2019-05-22T22:51:03.728Z,6.00
2019-05-22T22:53:34.707Z,6.20
2019-05-22T22:56:05.320Z,6.72
2019-05-22T22:58:34.953Z,6.00
2019-05-22T23:01:06.303Z,6.95
2019-05-22T23:04:09.842Z,6.00
2019-05-22T23:06:38.157Z,6.85
2019-05-22T23:09:07.957Z,6.50
2019-05-22T23:11:37.141Z,6.92
2019-05-22T23:14:05.614Z,6.17
2019-05-22T23:16:35.539Z,5.90
2019-05-22T23:19:40.156Z,6.60
2019-05-22T23:22:30.848Z,6.00
2019-05-22T23:25:00.128Z,7.07
2019-05-22T23:27:30.691Z,6.90
2019-05-22T23:30:00.537Z,6.35
2019-05-22T23:32:30.647Z,6.40
2019-05-22T23:35:00.555Z,6.70
2019-05-22T23:37:30.867Z,6.20
2019-05-22T23:40:01.027Z,6.80
2019-05-22T23:42:34.667Z,5.90
2019-05-22T23:45:06.855Z,5.65
2019-05-22T23:48:01.798Z,6.08
2019-05-22T23:50:31.581Z,6.35
2019-05-22T23:53:01.695Z,6.20
2019-05-22T23:55:31.884Z,6.63
